Time;durP1;ratioP1;P1;durP2;ratioP2;P2;SDS_P1;SDS_P2;PMS_P1;PMS_P2;Temp;Humidity;BMP_temperature;BMP_pressure;BME280_temperature;BME280_humidity;BME280_pressure;Samples;Min_cycle;Max_cycle;Signal;HPM_P1;HPM_P2
2023/10/10 00:02:06;;;;;;;7.97;3.85;;;;;;;14.98;nan;100051.66;4916847;29;20590;-76
2023/10/10 00:04:33;;;;;;;8.05;4.20;;;;;;;14.99;nan;100056.03;4914890;29;20259;-76
2023/10/10 00:07:03;;;;;;;10.07;4.93;;;;;;;14.96;nan;100058.88;4916533;29;20213;-76
2023/10/10 00:09:29;;;;;;;6.57;4.00;;;;;;;14.95;nan;100059.84;4914897;29;20298;-76
2023/10/10 00:11:57;;;;;;;8.27;4.63;;;;;;;14.95;nan;100065.97;4917972;29;20589;-76
2023/10/10 00:14:27;;;;;;;6.60;4.28;;;;;;;14.95;nan;100078.34;4915213;29;20406;-77
2023/10/10 00:16:54;;;;;;;6.00;3.47;;;;;;;14.94;nan;100069.59;4913656;29;20213;-76
2023/10/10 00:19:37;;;;;;;5.93;3.25;;;;;;;14.92;nan;100078.59;4916089;29;20206;-76
2023/10/10 00:22:05;;;;;;;10.07;4.15;;;;;;;14.91;nan;100077.75;4917796;29;20209;-76
2023/10/10 00:24:31;;;;;;;7.60;4.38;;;;;;;14.91;nan;100088.34;4918525;29;20213;-76
2023/10/10 00:27:23;;;;;;;8.27;4.20;;;;;;;14.88;nan;100091.22;4915672;29;20213;-76
2023/10/10 00:29:48;;;;;;;5.72;3.40;;;;;;;14.85;nan;100082.63;4917445;29;20194;-76
2023/10/10 00:32:22;;;;;;;11.63;4.03;;;;;;;14.81;nan;100076.75;4911922;29;20272;-76
2023/10/10 00:34:48;;;;;;;6.28;4.50;;;;;;;14.77;nan;100076.13;4917676;29;20537;-76
2023/10/10 00:37:29;;;;;;;6.23;4.20;;;;;;;14.74;nan;100081.66;4918148;29;20873;-76
2023/10/10 00:39:55;;;;;;;9.25;4.20;;;;;;;14.68;nan;100071.50;4919036;29;20240;-76
2023/10/10 00:42:37;;;;;;;5.20;3.65;;;;;;;14.60;nan;100076.50;4919943;29;20207;-76
2023/10/10 00:45:09;;;;;;;10.55;4.25;;;;;;;14.55;nan;100070.72;4918244;29;20665;-76
2023/10/10 00:47:40;;;;;;;6.75;3.63;;;;;;;14.52;nan;100073.53;4918548;29;20955;-76
2023/10/10 00:50:15;;;;;;;9.60;3.60;;;;;;;14.50;nan;100064.88;4934879;28;20214;-76
2023/10/10 00:52:44;;;;;;;10.35;4.50;;;;;;;14.45;nan;100064.41;4920195;29;20271;-76
2023/10/10 00:55:10;;;;;;;6.93;4.20;;;;;;;14.38;nan;100063.97;4919042;29;20210;-77
2023/10/10 00:57:36;;;;;;;6.95;3.88;;;;;;;14.34;nan;100063.38;4923715;29;20237;-76
2023/10/10 01:00:10;;;;;;;9.52;4.03;;;;;;;14.30;nan;100061.88;4918173;29;20218;-76
2023/10/10 01:02:37;;;;;;;7.53;4.30;;;;;;;14.23;nan;100067.72;4921400;29;20242;-76
2023/10/10 01:05:13;;;;;;;7.18;3.85;;;;;;;14.20;nan;100060.84;4921318;29;20198;-76
2023/10/10 01:07:40;;;;;;;8.48;3.80;;;;;;;14.16;nan;100059.38;4917040;29;20292;-76
2023/10/10 01:10:12;;;;;;;6.97;3.47;;;;;;;14.12;nan;100065.84;4916177;29;20230;-76
2023/10/10 01:12:39;;;;;;;8.02;3.80;;;;;;;14.10;nan;100060.69;4919717;29;20249;-76
2023/10/10 01:15:16;;;;;;;10.27;3.90;;;;;;;14.12;nan;100058.78;4920841;29;20210;-76
2023/10/10 01:17:43;;;;;;;9.95;5.22;;;;;;;14.15;nan;100065.63;4920545;29;20316;-76
2023/10/10 01:20:25;;;;;;;8.32;3.58;;;;;;;14.17;nan;100063.72;4919635;29;20252;-76
2023/10/10 01:22:54;;;;;;;8.88;4.20;;;;;;;14.21;nan;100057.28;4917486;29;20818;-76
2023/10/10 01:28:05;;;;;;;8.45;4.78;;;;;;;14.26;nan;100057.78;4914925;29;20245;-76
2023/10/10 01:30:44;;;;;;;6.93;4.05;;;;;;;14.27;nan;100062.09;4917478;29;20280;-76
2023/10/10 01:33:22;;;;;;;13.05;3.53;;;;;;;14.26;nan;100071.00;4920852;29;20822;-76
2023/10/10 01:35:55;;;;;;;7.03;3.13;;;;;;;14.24;nan;100056.22;4919412;29;20673;-76
2023/10/10 01:38:32;;;;;;;5.35;4.65;;;;;;;14.23;nan;100055.38;4919187;29;20226;-76
2023/10/10 01:41:04;;;;;;;8.25;3.92;;;;;;;14.22;nan;100044.91;4932794;28;20572;-76
2023/10/10 01:43:32;;;;;;;6.93;3.60;;;;;;;14.20;nan;100047.63;4920074;29;20197;-76
2023/10/10 01:46:18;;;;;;;11.52;4.03;;;;;;;14.16;nan;100048.81;4916217;29;20284;-76
2023/10/10 01:48:44;;;;;;;7.85;3.40;;;;;;;14.08;nan;100038.81;4917354;29;20209;-76
2023/10/10 01:51:10;;;;;;;12.43;3.97;;;;;;;14.05;nan;100043.47;4918068;29;20671;-76
2023/10/10 01:53:40;;;;;;;6.28;4.07;;;;;;;14.00;nan;100042.94;4911678;29;20843;-76
2023/10/10 01:56:11;;;;;;;8.02;3.58;;;;;;;13.97;nan;100040.53;4908969;29;20216;-76
2023/10/10 01:58:37;;;;;;;10.70;4.05;;;;;;;13.93;nan;100031.94;4918137;29;20223;-76
2023/10/10 02:01:31;;;;;;;7.72;4.25;;;;;;;13.87;nan;100027.94;4918191;29;20197;-76
2023/10/10 02:03:58;;;;;;;6.75;4.97;;;;;;;13.83;nan;100037.06;4917658;29;20206;-76
2023/10/10 02:06:30;;;;;;;7.07;3.83;;;;;;;13.78;nan;100030.41;4918877;29;20248;-76
2023/10/10 02:11:49;;;;;;;6.82;3.20;;;;;;;13.72;nan;100029.06;4917731;29;20221;-77
2023/10/10 02:14:18;;;;;;;8.85;5.18;;;;;;;13.71;nan;100028.19;4918812;29;20832;-76
2023/10/10 02:16:48;;;;;;;9.60;4.22;;;;;;;13.69;nan;100035.38;4918282;29;20597;-76
2023/10/10 02:19:24;;;;;;;12.55;5.07;;;;;;;13.67;nan;100037.28;4916700;29;20302;-76
2023/10/10 02:21:51;;;;;;;12.20;4.20;;;;;;;13.67;nan;100034.66;4920728;29;20229;-76
2023/10/10 02:26:56;;;;;;;5.28;3.00;;;;;;;13.70;nan;100031.78;4919054;29;20206;-76
2023/10/10 02:32:06;;;;;;;5.75;3.83;;;;;;;13.71;nan;100045.81;4918480;29;20197;-76
2023/10/10 02:34:34;;;;;;;14.52;4.40;;;;;;;13.70;nan;100041.50;4913825;29;20202;-76
2023/10/10 02:37:13;;;;;;;5.60;3.55;;;;;;;13.71;nan;100040.53;4916431;29;20223;-76
2023/10/10 02:39:41;;;;;;;9.30;3.40;;;;;;;13.67;nan;100033.81;4916146;29;20289;-76
2023/10/10 02:42:13;;;;;;;10.52;3.42;;;;;;;13.60;nan;100030.72;4929209;23;20240;-75
2023/10/10 02:44:46;;;;;;;6.28;3.95;;;;;;;13.55;nan;100027.56;4913033;29;20205;-75
2023/10/10 02:47:13;;;;;;;6.78;3.70;;;;;;;13.52;nan;100022.50;4905560;29;20201;-75
2023/10/10 02:49:42;;;;;;;3.70;3.20;;;;;;;13.51;nan;100023.47;4915727;29;20202;-75
2023/10/10 02:52:08;;;;;;;6.30;3.78;;;;;;;13.48;nan;100021.03;4919504;29;20216;-76
2023/10/10 02:54:34;;;;;;;9.23;3.42;;;;;;;13.44;nan;100028.31;4912294;29;20221;-75
2023/10/10 02:57:46;;;;;;;6.35;3.50;;;;;;;13.40;nan;100024.19;4917607;29;20557;-75
2023/10/10 02:59:59;;;;;;;8.23;4.32;;;;;;;13.41;nan;100023.25;4914152;29;20221;-75
2023/10/10 03:02:29;;;;;;;8.27;3.53;;;;;;;13.41;nan;100014.50;4916322;29;20206;-75
2023/10/10 03:07:29;;;;;;;9.68;4.68;;;;;;;13.44;nan;100020.38;4916028;29;20477;-76
2023/10/10 03:12:41;;;;;;;10.82;4.05;;;;;;;13.40;nan;100020.72;4914903;29;22905;-76
2023/10/10 03:15:15;;;;;;;7.75;3.95;;;;;;;13.37;nan;100013.88;4916709;29;20218;-76
2023/10/10 03:18:15;;;;;;;6.38;3.60;;;;;;;13.36;nan;100022.72;4933924;28;20205;-77
2023/10/10 03:28:30;;;;;;;7.43;3.58;;;;;;;13.34;nan;100016.72;4918870;29;20198;-76
2023/10/10 03:31:10;;;;;;;10.38;4.90;;;;;;;13.28;nan;100014.47;4909224;29;20205;-77
2023/10/10 03:36:32;;;;;;;6.45;3.42;;;;;;;13.23;nan;100013.91;4912773;29;20452;-77
2023/10/10 05:25:43;;;;;;;8.65;4.28;;;;;;;12.45;nan;99998.03;4919128;29;20221;-77
2023/10/10 05:28:09;;;;;;;14.00;9.00;;;;;;;12.44;nan;100005.09;4920082;29;20548;-77
2023/10/10 05:30:44;;;;;;;7.50;5.90;;;;;;;12.42;nan;100003.50;4920545;29;20685;-77
2023/10/10 05:33:09;;;;;;;7.10;4.88;;;;;;;12.36;nan;99997.69;4917973;29;20204;-77
2023/10/10 05:35:49;;;;;;;5.70;4.37;;;;;;;12.36;nan;100002.13;4918123;29;20197;-77
2023/10/10 05:38:15;;;;;;;9.50;4.78;;;;;;;12.35;nan;100003.91;4916636;29;20738;-77
2023/10/10 05:40:43;;;;;;;9.68;4.47;;;;;;;12.37;nan;99996.75;4919824;29;20273;-77
2023/10/10 05:43:09;;;;;;;5.68;3.55;;;;;;;12.40;nan;99993.09;4919672;29;20202;-77
2023/10/10 05:45:38;;;;;;;10.63;4.45;;;;;;;12.44;nan;99996.34;4919267;29;20209;-78
2023/10/10 05:48:07;;;;;;;11.52;5.50;;;;;;;12.44;nan;99996.34;4918197;29;20202;-78
2023/10/10 05:50:32;;;;;;;12.23;5.28;;;;;;;12.38;nan;99995.81;4917327;29;20232;-78
2023/10/10 05:53:00;;;;;;;7.60;5.50;;;;;;;12.35;nan;100003.06;4921035;29;20356;-78
2023/10/10 05:55:28;;;;;;;9.02;4.22;;;;;;;12.35;nan;100005.69;4919988;29;20199;-78
2023/10/10 05:57:57;;;;;;;8.95;6.00;;;;;;;12.40;nan;100001.81;4914631;29;20210;-78
2023/10/10 06:00:26;;;;;;;6.90;4.55;;;;;;;12.44;nan;100007.72;4920040;29;20197;-78
2023/10/10 06:02:51;;;;;;;10.80;4.60;;;;;;;12.51;nan;100009.03;4917941;29;20347;-78
2023/10/10 06:05:17;;;;;;;8.70;5.37;;;;;;;12.55;nan;100009.66;4918393;29;20684;-78
2023/10/10 06:07:43;;;;;;;7.10;4.10;;;;;;;12.59;nan;100013.81;4918124;29;20806;-78
2023/10/10 06:10:18;;;;;;;12.27;5.65;;;;;;;12.63;nan;100010.84;4920260;29;20228;-78
2023/10/10 06:12:48;;;;;;;11.90;4.97;;;;;;;12.71;nan;100010.34;4915730;29;20308;-78
2023/10/10 06:15:17;;;;;;;10.48;5.40;;;;;;;12.77;nan;100015.22;4913797;29;20198;-78
2023/10/10 06:17:46;;;;;;;12.18;4.70;;;;;;;12.86;nan;100013.78;4918696;29;20260;-77
2023/10/10 06:20:21;;;;;;;12.02;5.20;;;;;;;12.95;nan;100018.41;4915054;29;20478;-78
2023/10/10 06:22:47;;;;;;;11.98;6.10;;;;;;;13.05;nan;100013.38;4913727;29;20964;-77
2023/10/10 06:25:17;;;;;;;7.03;4.50;;;;;;;13.14;nan;100011.91;4917099;29;20297;-78
2023/10/10 06:27:46;;;;;;;12.43;6.10;;;;;;;13.19;nan;100012.44;4918568;29;20218;-78
2023/10/10 06:30:17;;;;;;;11.35;5.10;;;;;;;13.26;nan;100011.13;4917869;29;20213;-77
2023/10/10 06:32:48;;;;;;;10.23;4.63;;;;;;;13.33;nan;100009.72;4917596;29;20205;-78
2023/10/10 06:37:52;;;;;;;6.95;3.85;;;;;;;13.41;nan;100006.56;4916964;29;20206;-77
2023/10/10 06:40:25;;;;;;;6.75;4.43;;;;;;;13.44;nan;100009.00;4919360;29;20291;-78
2023/10/10 06:43:00;;;;;;;14.27;5.97;;;;;;;13.51;nan;100007.63;4918793;29;20198;-77
2023/10/10 06:45:34;;;;;;;7.50;4.70;;;;;;;13.60;nan;100014.91;4917715;29;20568;-77
2023/10/10 06:48:01;;;;;;;10.00;5.53;;;;;;;13.70;nan;100020.38;4917663;29;20217;-77
2023/10/10 06:50:31;;;;;;;6.70;4.35;;;;;;;13.80;nan;100020.56;4917831;29;20202;-78
2023/10/10 06:52:57;;;;;;;8.90;6.38;;;;;;;13.90;nan;100025.09;4918363;29;20202;-77
2023/10/10 06:55:23;;;;;;;8.45;4.85;;;;;;;13.97;nan;100022.03;4917165;29;20292;-77
2023/10/10 06:57:59;;;;;;;16.27;5.40;;;;;;;14.00;nan;100027.09;4920236;29;20285;-77
2023/10/10 07:00:45;;;;;;;13.65;7.47;;;;;;;14.00;nan;100027.09;4919276;29;20474;-78
2023/10/10 07:03:19;;;;;;;13.85;6.28;;;;;;;14.01;nan;100020.84;4917572;29;20257;-78
2023/10/10 07:05:45;;;;;;;8.88;5.07;;;;;;;14.05;nan;100022.34;4914851;29;20554;-78
2023/10/10 07:08:19;;;;;;;14.80;5.70;;;;;;;14.13;nan;100022.63;4919021;29;20257;-77
2023/10/10 07:10:45;;;;;;;7.63;6.00;;;;;;;14.25;nan;100019.09;4918602;29;20212;-77
2023/10/10 07:13:14;;;;;;;9.52;6.20;;;;;;;14.41;nan;100023.28;4917224;29;20257;-77
2023/10/10 07:15:50;;;;;;;11.43;6.18;;;;;;;14.57;nan;100021.22;4915249;29;20242;-78
2023/10/10 07:18:22;;;;;;;10.88;5.50;;;;;;;14.72;nan;100020.09;4916201;29;20716;-78
2023/10/10 07:21:04;;;;;;;13.65;5.75;;;;;;;14.89;nan;100018.81;4918827;29;20695;-78
2023/10/10 07:23:37;;;;;;;11.15;5.10;;;;;;;15.05;nan;100021.16;4918844;29;20198;-77
2023/10/10 07:26:05;;;;;;;14.63;7.03;;;;;;;15.19;nan;100018.31;4917743;29;20218;-78
2023/10/10 07:28:36;;;;;;;14.43;5.45;;;;;;;15.34;nan;100023.38;4918961;29;20640;-77
2023/10/10 07:31:02;;;;;;;12.18;5.03;;;;;;;15.48;nan;100031.13;4918585;29;20280;-78
2023/10/10 07:33:29;;;;;;;10.43;4.83;;;;;;;15.58;nan;100029.44;4917328;29;20609;-77
2023/10/10 07:35:57;;;;;;;15.60;5.90;;;;;;;15.69;nan;100034.78;4915681;29;20557;-78
2023/10/10 07:38:28;;;;;;;9.55;5.45;;;;;;;15.76;nan;100037.78;4918178;29;20297;-77
2023/10/10 07:40:54;;;;;;;10.60;5.90;;;;;;;15.85;nan;100038.84;4918546;29;20235;-78
2023/10/10 07:43:20;;;;;;;13.80;7.23;;;;;;;15.93;nan;100042.59;4916932;29;20510;-77
2023/10/10 07:45:47;;;;;;;14.63;7.35;;;;;;;16.03;nan;100034.75;4914989;29;20220;-77
2023/10/10 07:50:48;;;;;;;7.80;6.33;;;;;;;16.27;nan;100047.00;4918327;29;20205;-77
2023/10/10 07:53:14;;;;;;;9.98;6.47;;;;;;;16.41;nan;100044.09;4918588;29;20625;-78
2023/10/10 07:56:00;;;;;;;9.02;5.95;;;;;;;16.51;nan;100052.97;4912492;29;20610;-78
2023/10/10 08:01:23;;;;;;;9.13;4.95;;;;;;;16.77;nan;100045.59;4901356;29;20232;-75
2023/10/10 08:03:49;;;;;;;10.15;5.85;;;;;;;16.96;nan;100038.75;4915449;29;20205;-75
2023/10/10 08:06:22;;;;;;;10.60;4.83;;;;;;;17.21;nan;100048.16;4917269;29;20207;-75
2023/10/10 08:09:08;;;;;;;9.65;4.32;;;;;;;17.52;nan;100043.72;4917356;29;20546;-75
2023/10/10 08:11:37;;;;;;;9.35;4.35;;;;;;;17.87;nan;100051.31;4914314;29;20214;-76
2023/10/10 08:14:07;;;;;;;12.27;4.78;;;;;;;18.10;nan;100037.84;4918380;29;21178;-76
2023/10/10 08:16:40;;;;;;;14.10;6.35;;;;;;;18.34;nan;100048.97;4914349;29;20720;-76
2023/10/10 08:19:10;;;;;;;7.55;5.53;;;;;;;18.57;nan;100040.72;4918182;29;20281;-76
2023/10/10 08:21:38;;;;;;;11.27;4.97;;;;;;;18.76;nan;100043.44;4916390;29;20211;-76
2023/10/10 08:24:08;;;;;;;9.15;5.43;;;;;;;18.92;nan;100048.19;4917530;29;20218;-76
2023/10/10 08:26:40;;;;;;;9.23;5.20;;;;;;;19.13;nan;100047.22;4915502;29;20419;-76
2023/10/10 08:29:10;;;;;;;7.57;4.70;;;;;;;19.49;nan;100044.75;4916808;29;20810;-77
2023/10/10 08:31:36;;;;;;;12.73;5.03;;;;;;;19.83;nan;100042.44;4916988;29;20485;-78
2023/10/10 08:34:03;;;;;;;11.43;4.20;;;;;;;20.14;nan;100045.66;4919009;29;20434;-76
2023/10/10 08:36:29;;;;;;;16.90;4.17;;;;;;;20.49;nan;100046.72;4917621;29;20442;-77
2023/10/10 08:38:56;;;;;;;9.63;4.60;;;;;;;20.85;nan;100038.78;4918300;29;21004;-77
2023/10/10 08:41:26;;;;;;;9.83;4.30;;;;;;;21.23;nan;100040.25;4917082;29;21629;-77
2023/10/10 08:43:58;;;;;;;9.23;4.57;;;;;;;21.55;nan;100028.09;4940931;23;20725;-76
2023/10/10 08:46:32;;;;;;;8.97;4.40;;;;;;;21.86;nan;100034.63;4917018;29;20744;-76
2023/10/10 08:49:04;;;;;;;7.93;5.10;;;;;;;22.10;nan;100036.56;4923237;29;20449;-76
2023/10/10 08:51:33;;;;;;;11.67;4.83;;;;;;;22.16;nan;100032.41;4927263;28;20453;-76
2023/10/10 08:54:12;;;;;;;12.83;5.23;;;;;;;22.25;nan;100033.28;4926806;28;20461;-77
2023/10/10 08:57:27;;;;;;;9.80;4.23;;;;;;;22.47;nan;100029.19;4925759;28;21074;-77
2023/10/10 08:59:45;;;;;;;6.57;4.27;;;;;;;22.80;nan;100023.88;4922456;29;21027;-77
2023/10/10 09:02:16;;;;;;;8.90;4.23;;;;;;;23.03;nan;100029.44;4927145;29;20456;-78
2023/10/10 09:04:41;;;;;;;10.07;5.40;;;;;;;23.19;nan;100024.88;4927917;29;20451;-77
2023/10/10 09:07:19;;;;;;;11.53;3.80;;;;;;;23.12;nan;100026.59;4925837;29;20203;-76
2023/10/10 09:09:54;;;;;;;10.70;4.00;;;;;;;23.01;nan;100028.75;4924883;28;20204;-78
2023/10/10 09:12:20;;;;;;;12.13;4.40;;;;;;;22.97;nan;100023.72;4930537;28;20812;-78
2023/10/10 09:14:50;;;;;;;13.27;4.50;;;;;;;22.90;nan;100028.06;4929695;29;20487;-77
2023/10/10 09:17:32;;;;;;;12.93;4.77;;;;;;;22.79;nan;100024.88;4926078;29;21246;-77
2023/10/10 09:19:58;;;;;;;8.23;3.63;;;;;;;22.82;nan;100029.88;4930700;29;20471;-78
2023/10/10 09:22:42;;;;;;;8.67;5.20;;;;;;;22.99;nan;100025.41;4927156;29;20475;-78
2023/10/10 09:25:26;;;;;;;13.17;4.13;;;;;;;23.13;nan;100022.88;4926823;29;20565;-78
2023/10/10 09:27:59;;;;;;;10.53;3.63;;;;;;;23.23;nan;100025.41;4928845;29;20842;-78
2023/10/10 09:30:32;;;;;;;12.73;4.53;;;;;;;23.30;nan;100017.50;4929823;29;20457;-78
2023/10/10 09:33:22;;;;;;;6.97;4.40;;;;;;;23.36;nan;100023.03;4926029;29;20474;-78
2023/10/10 09:35:58;;;;;;;6.57;3.90;;;;;;;23.49;nan;100017.13;4927187;29;20440;-77
2023/10/10 09:38:27;;;;;;;8.67;4.30;;;;;;;23.60;nan;100014.09;4924314;29;20492;-78
2023/10/10 09:41:10;;;;;;;13.67;4.60;;;;;;;23.64;nan;100025.31;4925839;28;20457;-77
2023/10/10 09:43:49;;;;;;;13.23;4.97;;;;;;;23.62;nan;100014.75;4926397;28;20791;-78
2023/10/10 09:46:25;;;;;;;10.10;4.07;;;;;;;23.62;nan;100011.22;4928164;28;20477;-78
2023/10/10 09:52:49;;;;;;;10.70;4.77;;;;;;;23.60;nan;100014.09;4924563;28;20657;-78
2023/10/10 09:54:25;;;;;;;6.83;4.00;;;;;;;23.56;nan;100018.13;4927183;28;20530;-77
2023/10/10 09:56:56;;;;;;;9.87;5.00;;;;;;;23.63;nan;100010.25;4935422;28;20477;-78
2023/10/10 09:59:28;;;;;;;11.47;4.17;;;;;;;23.72;nan;100016.44;4924279;29;21021;-78
2023/10/10 10:01:59;;;;;;;22.00;5.17;;;;;;;23.83;nan;100018.75;4928068;29;20560;-78
2023/10/10 10:04:36;;;;;;;8.40;4.60;;;;;;;23.98;nan;100005.44;4927457;29;20451;-78
2023/10/10 10:07:18;;;;;;;7.77;3.90;;;;;;;24.05;nan;100009.91;4929037;29;20496;-78
2023/10/10 10:09:51;;;;;;;8.47;3.80;;;;;;;24.08;nan;100014.94;4926522;29;20645;-78
2023/10/10 10:12:45;;;;;;;8.57;5.17;;;;;;;24.16;nan;100010.56;4923951;28;20439;-78
2023/10/10 10:15:24;;;;;;;9.27;3.87;;;;;;;24.33;nan;100017.50;4928863;28;20493;-78
2023/10/10 10:17:56;;;;;;;9.17;4.10;;;;;;;24.48;nan;100013.06;4927954;28;21214;-78
2023/10/10 10:21:06;;;;;;;12.97;3.83;;;;;;;24.63;nan;100012.31;4925461;28;20488;-78
2023/10/10 10:23:26;;;;;;;6.07;4.20;;;;;;;24.80;nan;100005.78;4928191;28;20461;-78
2023/10/10 10:26:11;;;;;;;7.13;4.33;;;;;;;24.93;nan;100008.72;4929146;29;20461;-78
2023/10/10 10:28:43;;;;;;;5.17;3.67;;;;;;;24.99;nan;100009.00;4926466;28;20444;-78
2023/10/10 10:31:28;;;;;;;17.10;5.23;;;;;;;24.92;nan;100004.38;4926602;29;20462;-78
2023/10/10 10:34:10;;;;;;;9.20;4.30;;;;;;;25.01;nan;100004.28;4929344;28;20838;-75
2023/10/10 10:36:42;;;;;;;10.37;4.10;;;;;;;25.04;nan;100010.13;4925769;29;20456;-78
2023/10/10 10:39:34;;;;;;;7.17;3.70;;;;;;;25.06;nan;100009.94;4928049;28;20465;-78
2023/10/10 10:42:00;;;;;;;12.03;3.47;;;;;;;25.00;nan;100003.44;4920452;29;20445;-78
2023/10/10 10:47:35;;;;;;;9.80;4.13;;;;;;;25.19;nan;99999.44;4927621;28;20508;-78
2023/10/10 10:50:05;;;;;;;8.30;5.27;;;;;;;25.29;nan;99994.63;4928321;28;20465;-77
2023/10/10 10:52:55;;;;;;;5.80;4.27;;;;;;;25.23;nan;99995.38;4923473;28;20883;-78
2023/10/10 10:55:27;;;;;;;10.77;4.67;;;;;;;25.19;nan;99994.06;4927068;28;20455;-78
2023/10/10 10:58:05;;;;;;;5.90;3.30;;;;;;;25.08;nan;99989.91;4925764;29;20502;-78
2023/10/10 11:03:33;;;;;;;9.70;4.47;;;;;;;25.14;nan;99989.22;4924543;29;20571;-78
2023/10/10 11:06:20;;;;;;;11.57;4.70;;;;;;;25.21;nan;99986.66;4922886;29;20792;-78
2023/10/10 11:13:54;;;;;;;6.93;3.93;;;;;;;25.28;nan;99976.84;4927840;29;20462;-78
2023/10/10 11:16:36;;;;;;;10.10;3.97;;;;;;;25.34;nan;99965.34;4924438;29;20464;-78
2023/10/10 11:19:12;;;;;;;8.27;3.90;;;;;;;25.39;nan;99970.16;4921196;29;20545;-79
2023/10/10 11:21:47;;;;;;;6.97;3.70;;;;;;;25.33;nan;99960.13;4928284;29;20679;-78
2023/10/10 11:24:13;;;;;;;6.67;4.00;;;;;;;25.30;nan;99960.50;4922415;29;20703;-78
2023/10/10 11:26:40;;;;;;;6.97;4.77;;;;;;;25.27;nan;99956.31;4924181;28;20451;-78
2023/10/10 11:29:29;;;;;;;7.93;4.53;;;;;;;25.34;nan;99953.75;4923429;29;20463;-78
2023/10/10 11:32:08;;;;;;;8.17;4.40;;;;;;;25.44;nan;99953.44;4926854;29;20443;-77
2023/10/10 11:34:46;;;;;;;10.40;4.07;;;;;;;25.47;nan;99953.09;4927086;28;20554;-78
2023/10/10 11:37:20;;;;;;;8.87;3.77;;;;;;;25.46;nan;99946.03;4925216;29;21012;-77
2023/10/10 11:39:58;;;;;;;8.50;5.07;;;;;;;25.39;nan;99945.97;4923933;28;20531;-77
2023/10/10 11:42:33;;;;;;;7.43;4.00;;;;;;;25.36;nan;99944.47;4923049;29;20465;-78
2023/10/10 11:45:07;;;;;;;7.00;4.20;;;;;;;25.40;nan;99936.88;4925440;28;20461;-76
2023/10/10 11:47:42;;;;;;;11.60;4.60;;;;;;;25.46;nan;99944.19;4923084;28;20431;-76
2023/10/10 11:50:11;;;;;;;12.23;4.53;;;;;;;25.52;nan;99934.53;4927774;28;20468;-78
2023/10/10 11:52:53;;;;;;;17.67;4.57;;;;;;;25.61;nan;99931.56;4924399;28;20484;-77
2023/10/10 11:55:25;;;;;;;9.60;4.57;;;;;;;25.67;nan;99932.66;4926433;29;20471;-77
2023/10/10 11:57:57;;;;;;;11.20;4.80;;;;;;;25.75;nan;99926.34;4927728;29;20889;-76
2023/10/10 12:00:29;;;;;;;9.93;4.13;;;;;;;25.76;nan;99914.56;4926934;28;20458;-76
2023/10/10 12:02:57;;;;;;;11.03;4.90;;;;;;;25.70;nan;99916.16;4929135;29;20478;-77
2023/10/10 12:07:54;;;;;;;7.87;3.63;;;;;;;25.57;nan;99916.84;4926586;29;20977;-77
2023/10/10 12:10:24;;;;;;;9.60;3.97;;;;;;;25.57;nan;99918.66;4925508;29;20435;-77
2023/10/10 12:12:53;;;;;;;9.10;4.40;;;;;;;25.58;nan;99913.13;4925015;28;20264;-77
2023/10/10 12:15:22;;;;;;;11.40;4.40;;;;;;;25.60;nan;99905.69;4927133;29;20480;-77
2023/10/10 12:17:48;;;;;;;7.93;4.37;;;;;;;25.65;nan;99909.66;4922509;29;20491;-78
2023/10/10 12:20:16;;;;;;;7.53;3.47;;;;;;;25.68;nan;99906.59;4926972;29;20464;-77
2023/10/10 12:22:41;;;;;;;9.93;4.57;;;;;;;25.71;nan;99909.75;4927434;28;20476;-77
2023/10/10 12:25:13;;;;;;;5.73;3.77;;;;;;;25.74;nan;99906.69;4924668;29;20520;-77
2023/10/10 12:27:46;;;;;;;10.20;5.07;;;;;;;25.77;nan;99903.63;4928574;29;20846;-77
2023/10/10 12:30:13;;;;;;;7.30;3.87;;;;;;;25.84;nan;99892.94;4927931;29;21066;-77
2023/10/10 12:32:38;;;;;;;6.87;3.80;;;;;;;25.86;nan;99901.66;4931319;29;20552;-77
2023/10/10 12:35:04;;;;;;;10.63;3.90;;;;;;;25.85;nan;99894.63;4927288;28;20485;-77
2023/10/10 12:37:36;;;;;;;9.35;4.45;;;;;;;25.88;nan;99891.56;4932505;28;20921;-77
2023/10/10 12:40:08;;;;;;;12.27;4.27;;;;;;;25.89;nan;99885.13;4935197;29;21797;-77
2023/10/10 12:42:34;;;;;;;7.07;3.90;;;;;;;25.90;nan;99889.50;4930902;29;20472;-77
2023/10/10 12:45:01;;;;;;;8.37;4.30;;;;;;;25.91;nan;99885.78;4932466;29;20976;-77
2023/10/10 12:47:33;;;;;;;10.07;4.90;;;;;;;25.94;nan;99884.56;4929491;29;20443;-78
2023/10/10 12:50:04;;;;;;;9.87;4.20;;;;;;;26.00;nan;99892.72;4927785;29;20427;-77
2023/10/10 12:52:35;;;;;;;10.40;4.63;;;;;;;26.04;nan;99879.72;4927744;29;20963;-76
2023/10/10 12:55:09;;;;;;;8.97;4.50;;;;;;;26.07;nan;99873.94;4930330;29;20448;-77
2023/10/10 12:57:36;;;;;;;6.53;3.63;;;;;;;26.12;nan;99879.59;4927217;29;20512;-77
2023/10/10 13:00:23;;;;;;;6.90;4.20;;;;;;;26.17;nan;99870.94;4933385;28;20819;-77
2023/10/10 13:02:47;;;;;;;9.83;4.30;;;;;;;26.21;nan;99869.53;4933406;28;20457;-77
2023/10/10 13:05:13;;;;;;;15.70;5.40;;;;;;;26.36;nan;99866.78;4930748;29;20461;-77
2023/10/10 13:07:41;;;;;;;9.07;4.10;;;;;;;26.51;nan;99863.97;4927536;29;20532;-77
2023/10/10 13:10:10;;;;;;;10.50;3.97;;;;;;;26.59;nan;99867.38;4932895;28;20545;-77
2023/10/10 13:12:39;;;;;;;9.17;4.23;;;;;;;26.65;nan;99861.25;4931676;28;20560;-77
2023/10/10 13:15:17;;;;;;;12.70;3.50;;;;;;;26.72;nan;99855.06;4930933;29;20879;-77
2023/10/10 13:18:19;;;;;;;8.40;3.60;;;;;;;26.77;nan;99858.00;4928727;29;20458;-77
2023/10/10 13:20:41;;;;;;;13.47;5.67;;;;;;;26.83;nan;99860.72;4926772;29;20430;-77
2023/10/10 13:23:06;;;;;;;8.37;3.23;;;;;;;26.85;nan;99853.28;4928411;29;20431;-78
2023/10/10 13:25:39;;;;;;;10.83;3.60;;;;;;;26.89;nan;99856.41;4929380;29;20488;-77
2023/10/10 13:28:17;;;;;;;14.07;5.83;;;;;;;26.91;nan;99855.19;4931512;28;20830;-77
2023/10/10 13:30:46;;;;;;;7.97;4.27;;;;;;;26.92;nan;99854.16;4925674;28;20454;-78
2023/10/10 13:33:16;;;;;;;6.87;3.20;;;;;;;26.92;nan;99846.06;4929351;28;20439;-77
2023/10/10 13:35:42;;;;;;;10.50;5.00;;;;;;;26.93;nan;99841.50;4931904;28;20536;-77
2023/10/10 13:38:08;;;;;;;13.83;3.73;;;;;;;26.93;nan;99855.00;4932395;28;20424;-77
2023/10/10 13:40:48;;;;;;;11.53;4.80;;;;;;;26.93;nan;99846.91;4928284;28;20450;-77
2023/10/10 13:43:18;;;;;;;8.03;4.17;;;;;;;26.93;nan;99839.66;4924595;29;20486;-78
2023/10/10 13:45:45;;;;;;;7.33;3.33;;;;;;;26.90;nan;99839.22;4925451;29;20496;-77
2023/10/10 13:48:13;;;;;;;5.43;3.30;;;;;;;26.88;nan;99839.41;4929019;28;20499;-77
2023/10/10 13:50:44;;;;;;;10.50;4.00;;;;;;;26.88;nan;99838.56;4931697;29;21046;-78
2023/10/10 13:53:14;;;;;;;9.20;3.40;;;;;;;26.88;nan;99836.72;4932670;29;20534;-79
2023/10/10 13:55:46;;;;;;;11.57;4.67;;;;;;;26.90;nan;99841.91;4930402;28;21166;-78
2023/10/10 13:58:13;;;;;;;7.90;3.27;;;;;;;26.90;nan;99837.34;4928935;29;20488;-78
2023/10/10 14:00:43;;;;;;;7.93;3.37;;;;;;;26.96;nan;99841.13;4927671;29;20465;-77
2023/10/10 14:03:09;;;;;;;8.43;3.97;;;;;;;27.09;nan;99830.41;4926060;29;20508;-78
2023/10/10 14:05:37;;;;;;;6.10;4.10;;;;;;;27.17;nan;99829.44;4925938;28;20473;-78
2023/10/10 14:08:06;;;;;;;10.47;3.90;;;;;;;27.24;nan;99824.06;4926150;29;20470;-77
2023/10/10 14:10:37;;;;;;;9.90;3.47;;;;;;;27.30;nan;99825.94;4928204;29;21154;-77
2023/10/10 14:13:18;;;;;;;5.43;3.30;;;;;;;27.36;nan;99822.47;4925171;29;20484;-78
2023/10/10 14:15:54;;;;;;;12.67;4.87;;;;;;;27.39;nan;99822.06;4929067;29;20443;-78
2023/10/10 14:18:20;;;;;;;10.23;4.10;;;;;;;27.40;nan;99817.50;4925029;29;20973;-76
2023/10/10 14:20:47;;;;;;;13.70;4.13;;;;;;;27.39;nan;99821.22;4930094;29;20516;-78
2023/10/10 14:23:14;;;;;;;8.13;4.00;;;;;;;27.40;nan;99821.00;4925760;28;20896;-75
2023/10/10 14:25:45;;;;;;;9.67;3.37;;;;;;;27.39;nan;99818.53;4926510;28;21058;-76
2023/10/10 14:28:16;;;;;;;7.10;4.03;;;;;;;27.38;nan;99828.47;4929432;28;20484;-76
2023/10/10 14:30:43;;;;;;;6.93;3.20;;;;;;;27.40;nan;99826.41;4926750;29;20516;-76
2023/10/10 14:33:09;;;;;;;5.50;3.37;;;;;;;27.43;nan;99825.19;4929887;28;20476;-76
2023/10/10 14:35:34;;;;;;;7.50;3.83;;;;;;;27.43;nan;99822.47;4926291;29;20997;-76
2023/10/10 14:38:01;;;;;;;6.20;3.10;;;;;;;27.47;nan;99821.88;4921849;29;20204;-76
2023/10/10 14:40:26;;;;;;;8.67;4.50;;;;;;;27.48;nan;99814.63;4926183;29;20205;-76
2023/10/10 14:42:52;;;;;;;9.73;4.10;;;;;;;27.43;nan;99815.22;4945157;23;20499;-80